PAEN/ENA METAR and TAF weather

Enter ICAO airport designator
Station Type Date Time Source
PAEN METAR 2020/01/24 08:53 UTC NOAA

PAEN 240853Z AUTO 00000KT 10SM OVC055 M17/M19 A2951 RMK AO2 SLP996 T11721194 411001256 52001 TSNO


Station Type Date Time Source
PAEN Decoded METAR 2020/01/24 08:53 UTC NOAA

KENAI MUNICIPAL AIRPORT, AK, United States (PAEN) 60-35N 151-14W 25M
Jan 24, 2020 - 03:53 AM EST / 2020.01.24 0853 UTC
Wind: Calm:0
Visibility: 10 mile(s):0
Sky conditions: overcast
Temperature: 1.0 F (-17.2 C)
Dew Point: -2.9 F (-19.4 C)
Relative Humidity: 82%
Pressure (altimeter): 29.51 in. Hg (999 hPa)
Pressure tendency: 0.00 inches (0.1 hPa) higher than three hours ago
ob: PAEN 240853Z AUTO 00000KT 10SM OVC055 M17/M19 A2951 RMK AO2 SLP996 T11721194 411001256 52001 TSNO
cycle: 9

Station Type Date Time Source
PAEN TAF 2020/01/24 06:42 UTC NOAA

TAF PAEN 240541Z 2406/2506 36005KT P6SM SCT090
FM242100 02012KT P6SM SKC

Example: see airport list